sensor_id;sensor_type;location;lat;lon;timestamp;temperature;humidity
7461;DHT22;6757;52.258;12.840;2023-03-01T00:01:00;-4.80;99.90
7461;DHT22;6757;52.258;12.840;2023-03-01T00:03:28;-4.80;99.90
7461;DHT22;6757;52.258;12.840;2023-03-01T00:05:55;-4.80;99.90
7461;DHT22;6757;52.258;12.840;2023-03-01T00:08:22;-4.80;99.90
7461;DHT22;6757;52.258;12.840;2023-03-01T00:10:49;-4.90;99.90
7461;DHT22;6757;52.258;12.840;2023-03-01T00:13:16;-4.90;99.90
7461;DHT22;6757;52.258;12.840;2023-03-01T00:15:43;-4.90;99.90
7461;DHT22;6757;52.258;12.840;2023-03-01T00:18:11;-4.90;99.90
7461;DHT22;6757;52.258;12.840;2023-03-01T00:20:38;-4.90;99.90
7461;DHT22;6757;52.258;12.840;2023-03-01T00:23:05;-5.00;99.90
7461;DHT22;6757;52.258;12.840;2023-03-01T00:25:31;-4.90;99.90
7461;DHT22;6757;52.258;12.840;2023-03-01T00:27:58;-5.00;99.90
7461;DHT22;6757;52.258;12.840;2023-03-01T00:30:25;-5.00;99.90
7461;DHT22;6757;52.258;12.840;2023-03-01T00:32:52;-5.00;99.90
7461;DHT22;6757;52.258;12.840;2023-03-01T00:35:20;-5.00;99.90
7461;DHT22;6757;52.258;12.840;2023-03-01T00:37:48;-5.00;99.90
7461;DHT22;6757;52.258;12.840;2023-03-01T00:40:18;-5.00;99.90
7461;DHT22;6757;52.258;12.840;2023-03-01T00:42:45;-5.10;99.90
7461;DHT22;6757;52.258;12.840;2023-03-01T00:45:12;-5.10;99.90
7461;DHT22;6757;52.258;12.840;2023-03-01T00:47:39;-5.10;99.90
7461;DHT22;6757;52.258;12.840;2023-03-01T00:50:07;-5.10;99.90
7461;DHT22;6757;52.258;12.840;2023-03-01T00:52:36;-5.10;99.90
7461;DHT22;6757;52.258;12.840;2023-03-01T00:55:04;-5.20;99.90
7461;DHT22;6757;52.258;12.840;2023-03-01T00:57:32;-5.20;99.90
7461;DHT22;6757;52.258;12.840;2023-03-01T00:59:59;-5.20;99.90
7461;DHT22;6757;52.258;12.840;2023-03-01T01:02:26;-5.20;99.90
7461;DHT22;6757;52.258;12.840;2023-03-01T01:04:53;-5.20;99.90
7461;DHT22;6757;52.258;12.840;2023-03-01T01:07:20;-5.20;99.90
7461;DHT22;6757;52.258;12.840;2023-03-01T01:09:48;-5.20;99.90
7461;DHT22;6757;52.258;12.840;2023-03-01T01:12:15;-5.30;99.90
7461;DHT22;6757;52.258;12.840;2023-03-01T01:14:42;-5.30;99.90
7461;DHT22;6757;52.258;12.840;2023-03-01T01:17:09;-5.30;99.90
7461;DHT22;6757;52.258;12.840;2023-03-01T01:19:36;-5.40;99.90
7461;DHT22;6757;52.258;12.840;2023-03-01T01:22:03;-5.40;99.90
7461;DHT22;6757;52.258;12.840;2023-03-01T01:24:30;-5.40;99.90
7461;DHT22;6757;52.258;12.840;2023-03-01T01:26:58;-5.40;99.90
7461;DHT22;6757;52.258;12.840;2023-03-01T01:29:25;-5.40;99.90
7461;DHT22;6757;52.258;12.840;2023-03-01T01:31:52;-5.40;99.90
7461;DHT22;6757;52.258;12.840;2023-03-01T01:34:20;-5.50;99.90
7461;DHT22;6757;52.258;12.840;2023-03-01T01:36:48;-5.50;99.90
7461;DHT22;6757;52.258;12.840;2023-03-01T01:39:16;-5.50;99.90
7461;DHT22;6757;52.258;12.840;2023-03-01T01:41:43;-5.50;99.90
7461;DHT22;6757;52.258;12.840;2023-03-01T01:44:14;-5.50;99.90
7461;DHT22;6757;52.258;12.840;2023-03-01T01:46:45;-5.60;99.90
7461;DHT22;6757;52.258;12.840;2023-03-01T01:49:24;-5.60;99.90
7461;DHT22;6757;52.258;12.840;2023-03-01T01:52:00;-5.60;99.90
7461;DHT22;6757;52.258;12.840;2023-03-01T01:54:38;-5.60;99.90
7461;DHT22;6757;52.258;12.840;2023-03-01T01:57:12;-5.70;99.90
7461;DHT22;6757;52.258;12.840;2023-03-01T01:59:45;-5.70;99.90
7461;DHT22;6757;52.258;12.840;2023-03-01T02:02:13;-5.60;99.90
7461;DHT22;6757;52.258;12.840;2023-03-01T02:04:41;-5.70;99.90
7461;DHT22;6757;52.258;12.840;2023-03-01T02:07:14;-5.80;99.90
7461;DHT22;6757;52.258;12.840;2023-03-01T02:09:46;-5.80;99.90
7461;DHT22;6757;52.258;12.840;2023-03-01T02:12:14;-5.70;99.90
7461;DHT22;6757;52.258;12.840;2023-03-01T02:14:44;-5.80;99.90
7461;DHT22;6757;52.258;12.840;2023-03-01T02:17:12;-5.80;99.90
7461;DHT22;6757;52.258;12.840;2023-03-01T02:19:50;-5.70;99.90
7461;DHT22;6757;52.258;12.840;2023-03-01T02:22:25;-5.70;99.90
7461;DHT22;6757;52.258;12.840;2023-03-01T02:25:03;-5.80;99.90
7461;DHT22;6757;52.258;12.840;2023-03-01T02:27:43;-5.90;99.90
7461;DHT22;6757;52.258;12.840;2023-03-01T02:30:17;-5.90;99.90
7461;DHT22;6757;52.258;12.840;2023-03-01T02:32:45;-5.90;99.90
7461;DHT22;6757;52.258;12.840;2023-03-01T02:35:13;-5.40;99.90
7461;DHT22;6757;52.258;12.840;2023-03-01T02:37:43;-5.90;99.90
7461;DHT22;6757;52.258;12.840;2023-03-01T02:40:14;-6.00;99.90
7461;DHT22;6757;52.258;12.840;2023-03-01T02:42:49;-6.00;99.90
7461;DHT22;6757;52.258;12.840;2023-03-01T02:45:20;-5.90;99.90
7461;DHT22;6757;52.258;12.840;2023-03-01T02:47:47;-6.00;99.90
7461;DHT22;6757;52.258;12.840;2023-03-01T02:50:23;-6.10;99.90
7461;DHT22;6757;52.258;12.840;2023-03-01T02:53:02;-6.10;99.90
7461;DHT22;6757;52.258;12.840;2023-03-01T02:55:31;-5.40;99.90
7461;DHT22;6757;52.258;12.840;2023-03-01T02:58:01;-6.10;99.90
7461;DHT22;6757;52.258;12.840;2023-03-01T03:00:33;-6.10;99.90
7461;DHT22;6757;52.258;12.840;2023-03-01T03:03:06;-6.10;99.90
7461;DHT22;6757;52.258;12.840;2023-03-01T03:05:33;-5.60;99.90
7461;DHT22;6757;52.258;12.840;2023-03-01T03:08:02;-6.20;99.90
7461;DHT22;6757;52.258;12.840;2023-03-01T03:10:32;-5.90;99.90
7461;DHT22;6757;52.258;12.840;2023-03-01T03:13:02;-5.50;99.90
7461;DHT22;6757;52.258;12.840;2023-03-01T03:15:32;-6.20;99.90
7461;DHT22;6757;52.258;12.840;2023-03-01T03:18:02;-6.00;99.90
7461;DHT22;6757;52.258;12.840;2023-03-01T03:20:30;-5.50;99.90
7461;DHT22;6757;52.258;12.840;2023-03-01T03:22:57;-6.20;99.90
7461;DHT22;6757;52.258;12.840;2023-03-01T03:25:26;-6.30;99.90
7461;DHT22;6757;52.258;12.840;2023-03-01T03:27:54;-6.30;99.90
7461;DHT22;6757;52.258;12.840;2023-03-01T03:30:24;-6.30;99.90
7461;DHT22;6757;52.258;12.840;2023-03-01T03:32:54;-6.30;99.90
7461;DHT22;6757;52.258;12.840;2023-03-01T03:35:23;-6.30;99.90
7461;DHT22;6757;52.258;12.840;2023-03-01T03:37:52;-6.30;99.90
7461;DHT22;6757;52.258;12.840;2023-03-01T03:40:29;-6.30;99.90
7461;DHT22;6757;52.258;12.840;2023-03-01T03:42:57;-6.30;99.90
7461;DHT22;6757;52.258;12.840;2023-03-01T03:45:24;-6.30;99.90
7461;DHT22;6757;52.258;12.840;2023-03-01T03:47:51;-5.80;99.90
7461;DHT22;6757;52.258;12.840;2023-03-01T03:50:20;-5.90;99.90
7461;DHT22;6757;52.258;12.840;2023-03-01T03:52:47;-6.40;99.90
7461;DHT22;6757;52.258;12.840;2023-03-01T03:55:14;-6.40;99.90
7461;DHT22;6757;52.258;12.840;2023-03-01T03:57:45;-6.10;99.90
7461;DHT22;6757;52.258;12.840;2023-03-01T04:00:18;-5.80;99.90
7461;DHT22;6757;52.258;12.840;2023-03-01T04:02:47;-6.40;99.90
7461;DHT22;6757;52.258;12.840;2023-03-01T04:05:16;-6.10;99.90
7461;DHT22;6757;52.258;12.840;2023-03-01T04:07:46;-6.40;99.90
7461;DHT22;6757;52.258;12.840;2023-03-01T04:10:16;-5.80;99.90
7461;DHT22;6757;52.258;12.840;2023-03-01T04:12:44;-6.50;99.90
7461;DHT22;6757;52.258;12.840;2023-03-01T04:15:11;-6.30;99.90
7461;DHT22;6757;52.258;12.840;2023-03-01T04:17:42;-6.40;99.90
7461;DHT22;6757;52.258;12.840;2023-03-01T04:20:12;-6.50;99.90
7461;DHT22;6757;52.258;12.840;2023-03-01T04:22:43;-6.50;99.90
7461;DHT22;6757;52.258;12.840;2023-03-01T04:25:13;-5.90;99.90
7461;DHT22;6757;52.258;12.840;2023-03-01T04:27:40;-6.50;99.90
7461;DHT22;6757;52.258;12.840;2023-03-01T04:30:09;-6.50;99.90
7461;DHT22;6757;52.258;12.840;2023-03-01T04:32:37;-6.50;99.90
7461;DHT22;6757;52.258;12.840;2023-03-01T04:35:05;-6.50;99.90
7461;DHT22;6757;52.258;12.840;2023-03-01T04:37:32;-6.50;99.90
7461;DHT22;6757;52.258;12.840;2023-03-01T04:40:00;-6.50;99.90
7461;DHT22;6757;52.258;12.840;2023-03-01T04:42:39;-6.50;99.90
7461;DHT22;6757;52.258;12.840;2023-03-01T04:45:07;-5.80;99.90
7461;DHT22;6757;52.258;12.840;2023-03-01T04:47:38;-6.50;99.90
7461;DHT22;6757;52.258;12.840;2023-03-01T04:50:07;-6.50;99.90
7461;DHT22;6757;52.258;12.840;2023-03-01T04:52:35;-6.50;99.90
7461;DHT22;6757;52.258;12.840;2023-03-01T04:55:02;-6.00;99.90
7461;DHT22;6757;52.258;12.840;2023-03-01T04:57:30;-6.50;99.90
7461;DHT22;6757;52.258;12.840;2023-03-01T04:59:58;-6.50;99.90
7461;DHT22;6757;52.258;12.840;2023-03-01T05:02:25;-6.30;99.90
7461;DHT22;6757;52.258;12.840;2023-03-01T05:04:52;-6.40;99.90
7461;DHT22;6757;52.258;12.840;2023-03-01T05:07:23;-6.40;99.90
7461;DHT22;6757;52.258;12.840;2023-03-01T05:09:51;-6.40;99.90
7461;DHT22;6757;52.258;12.840;2023-03-01T05:12:18;-6.30;99.90
7461;DHT22;6757;52.258;12.840;2023-03-01T05:14:45;-6.30;99.90
7461;DHT22;6757;52.258;12.840;2023-03-01T05:17:13;-6.30;99.90
7461;DHT22;6757;52.258;12.840;2023-03-01T05:19:40;-6.30;99.90
7461;DHT22;6757;52.258;12.840;2023-03-01T05:22:08;-6.10;99.90
7461;DHT22;6757;52.258;12.840;2023-03-01T05:24:35;-5.50;99.90
7461;DHT22;6757;52.258;12.840;2023-03-01T05:27:02;-6.30;99.90
7461;DHT22;6757;52.258;12.840;2023-03-01T05:29:31;-6.30;99.90
7461;DHT22;6757;52.258;12.840;2023-03-01T05:32:01;-6.10;99.90
7461;DHT22;6757;52.258;12.840;2023-03-01T05:34:32;-5.10;99.90
7461;DHT22;6757;52.258;12.840;2023-03-01T05:37:00;-4.20;99.90
7461;DHT22;6757;52.258;12.840;2023-03-01T05:39:29;-3.70;99.90
7461;DHT22;6757;52.258;12.840;2023-03-01T05:41:58;-3.70;99.90
7461;DHT22;6757;52.258;12.840;2023-03-01T05:44:28;-3.80;99.90
7461;DHT22;6757;52.258;12.840;2023-03-01T05:46:55;-4.00;99.90
7461;DHT22;6757;52.258;12.840;2023-03-01T05:49:22;-4.20;99.90
7461;DHT22;6757;52.258;12.840;2023-03-01T05:51:52;-4.40;99.90
7461;DHT22;6757;52.258;12.840;2023-03-01T05:54:20;-4.70;99.90
7461;DHT22;6757;52.258;12.840;2023-03-01T05:56:48;-4.90;99.90
7461;DHT22;6757;52.258;12.840;2023-03-01T05:59:15;-5.10;99.90
7461;DHT22;6757;52.258;12.840;2023-03-01T06:01:42;-5.30;99.90
7461;DHT22;6757;52.258;12.840;2023-03-01T06:04:09;-5.40;99.90
7461;DHT22;6757;52.258;12.840;2023-03-01T06:06:37;-5.60;99.90
7461;DHT22;6757;52.258;12.840;2023-03-01T06:09:06;-5.60;99.90
7461;DHT22;6757;52.258;12.840;2023-03-01T06:11:35;-5.80;99.90
7461;DHT22;6757;52.258;12.840;2023-03-01T06:14:03;-5.80;99.90
7461;DHT22;6757;52.258;12.840;2023-03-01T06:16:30;-5.80;99.90
7461;DHT22;6757;52.258;12.840;2023-03-01T06:18:57;-6.00;99.90
7461;DHT22;6757;52.258;12.840;2023-03-01T06:21:24;-6.00;99.90
7461;DHT22;6757;52.258;12.840;2023-03-01T06:23:50;-6.10;99.90
7461;DHT22;6757;52.258;12.840;2023-03-01T06:26:19;-6.10;99.90
7461;DHT22;6757;52.258;12.840;2023-03-01T06:28:46;-6.20;99.90
7461;DHT22;6757;52.258;12.840;2023-03-01T06:31:13;-6.20;99.90
7461;DHT22;6757;52.258;12.840;2023-03-01T06:33:40;-6.20;99.90
7461;DHT22;6757;52.258;12.840;2023-03-01T06:36:10;-6.20;99.90
7461;DHT22;6757;52.258;12.840;2023-03-01T06:38:37;-6.30;99.90
7461;DHT22;6757;52.258;12.840;2023-03-01T06:41:06;-6.30;99.90
7461;DHT22;6757;52.258;12.840;2023-03-01T06:43:34;-6.30;99.90
7461;DHT22;6757;52.258;12.840;2023-03-01T06:46:04;-6.20;99.90
7461;DHT22;6757;52.258;12.840;2023-03-01T06:48:32;-6.20;99.90
7461;DHT22;6757;52.258;12.840;2023-03-01T06:50:59;-6.20;99.90
7461;DHT22;6757;52.258;12.840;2023-03-01T06:53:27;-6.20;99.90
7461;DHT22;6757;52.258;12.840;2023-03-01T06:55:54;-6.20;99.90
7461;DHT22;6757;52.258;12.840;2023-03-01T06:58:22;-6.20;99.90
7461;DHT22;6757;52.258;12.840;2023-03-01T07:00:50;-6.10;99.90
7461;DHT22;6757;52.258;12.840;2023-03-01T07:03:17;-6.10;99.90
7461;DHT22;6757;52.258;12.840;2023-03-01T07:05:44;-5.90;99.90
7461;DHT22;6757;52.258;12.840;2023-03-01T07:08:11;-5.90;99.90
7461;DHT22;6757;52.258;12.840;2023-03-01T07:10:38;-6.00;99.90
7461;DHT22;6757;52.258;12.840;2023-03-01T07:13:05;-5.90;99.90
7461;DHT22;6757;52.258;12.840;2023-03-01T07:15:33;-5.90;99.90
7461;DHT22;6757;52.258;12.840;2023-03-01T07:18:01;-5.80;99.90
7461;DHT22;6757;52.258;12.840;2023-03-01T07:20:28;-5.80;99.90
7461;DHT22;6757;52.258;12.840;2023-03-01T07:22:56;-5.70;99.90
7461;DHT22;6757;52.258;12.840;2023-03-01T07:25:24;-5.60;99.90
7461;DHT22;6757;52.258;12.840;2023-03-01T07:27:51;-5.60;99.90
7461;DHT22;6757;52.258;12.840;2023-03-01T07:30:20;-5.30;99.90
7461;DHT22;6757;52.258;12.840;2023-03-01T07:32:51;-5.50;99.90
7461;DHT22;6757;52.258;12.840;2023-03-01T07:35:20;-5.40;99.90
7461;DHT22;6757;52.258;12.840;2023-03-01T07:37:47;-5.30;99.90
7461;DHT22;6757;52.258;12.840;2023-03-01T07:40:14;-5.20;99.90
7461;DHT22;6757;52.258;12.840;2023-03-01T07:42:41;-5.20;99.90
7461;DHT22;6757;52.258;12.840;2023-03-01T07:45:09;-5.10;99.90
7461;DHT22;6757;52.258;12.840;2023-03-01T07:47:36;-5.00;99.90
7461;DHT22;6757;52.258;12.840;2023-03-01T07:50:04;-4.90;99.90
7461;DHT22;6757;52.258;12.840;2023-03-01T07:52:32;-4.80;99.90
7461;DHT22;6757;52.258;12.840;2023-03-01T07:54:59;-4.70;99.90
7461;DHT22;6757;52.258;12.840;2023-03-01T07:57:26;-4.60;99.90
7461;DHT22;6757;52.258;12.840;2023-03-01T07:59:53;-4.50;99.90
7461;DHT22;6757;52.258;12.840;2023-03-01T08:02:20;-4.40;99.90
7461;DHT22;6757;52.258;12.840;2023-03-01T08:04:46;-4.30;99.90
7461;DHT22;6757;52.258;12.840;2023-03-01T08:07:13;-4.20;99.90
7461;DHT22;6757;52.258;12.840;2023-03-01T08:09:42;-4.10;99.90
7461;DHT22;6757;52.258;12.840;2023-03-01T08:12:08;-4.00;99.90
7461;DHT22;6757;52.258;12.840;2023-03-01T08:14:35;-3.90;99.90
7461;DHT22;6757;52.258;12.840;2023-03-01T08:17:02;-3.70;99.90
7461;DHT22;6757;52.258;12.840;2023-03-01T08:19:29;-3.60;99.90
7461;DHT22;6757;52.258;12.840;2023-03-01T08:21:56;-3.50;99.90
7461;DHT22;6757;52.258;12.840;2023-03-01T08:24:25;-3.30;99.90
7461;DHT22;6757;52.258;12.840;2023-03-01T08:26:54;-3.20;99.90
7461;DHT22;6757;52.258;12.840;2023-03-01T08:29:22;-3.10;99.90
7461;DHT22;6757;52.258;12.840;2023-03-01T08:31:50;-2.90;99.90
7461;DHT22;6757;52.258;12.840;2023-03-01T08:34:18;-2.80;99.90
7461;DHT22;6757;52.258;12.840;2023-03-01T08:36:46;-2.70;99.90
7461;DHT22;6757;52.258;12.840;2023-03-01T08:39:15;-2.50;99.90
7461;DHT22;6757;52.258;12.840;2023-03-01T08:41:43;-2.40;99.90
7461;DHT22;6757;52.258;12.840;2023-03-01T08:44:14;-2.20;99.90
7461;DHT22;6757;52.258;12.840;2023-03-01T08:46:43;-2.10;99.90
7461;DHT22;6757;52.258;12.840;2023-03-01T08:49:12;-1.90;99.90
7461;DHT22;6757;52.258;12.840;2023-03-01T08:51:41;-1.80;99.90
7461;DHT22;6757;52.258;12.840;2023-03-01T08:57:49;-1.40;99.90
7461;DHT22;6757;52.258;12.840;2023-03-01T09:00:18;-1.10;99.90
7461;DHT22;6757;52.258;12.840;2023-03-01T09:02:46;-1.00;99.90
7461;DHT22;6757;52.258;12.840;2023-03-01T09:05:13;-0.80;99.90
7461;DHT22;6757;52.258;12.840;2023-03-01T09:07:40;-0.70;99.90
7461;DHT22;6757;52.258;12.840;2023-03-01T09:10:08;-0.50;99.90
7461;DHT22;6757;52.258;12.840;2023-03-01T09:12:36;-0.30;99.90
7461;DHT22;6757;52.258;12.840;2023-03-01T09:15:03;-0.20;99.90
7461;DHT22;6757;52.258;12.840;2023-03-01T09:17:32;0.00;99.90
7461;DHT22;6757;52.258;12.840;2023-03-01T09:19:59;0.20;99.90
7461;DHT22;6757;52.258;12.840;2023-03-01T09:22:26;0.40;99.90
7461;DHT22;6757;52.258;12.840;2023-03-01T09:24:53;0.50;99.90
7461;DHT22;6757;52.258;12.840;2023-03-01T09:27:19;0.60;99.90
7461;DHT22;6757;52.258;12.840;2023-03-01T09:29:46;0.70;99.90
7461;DHT22;6757;52.258;12.840;2023-03-01T09:32:13;0.80;99.90
7461;DHT22;6757;52.258;12.840;2023-03-01T09:34:41;0.90;99.90
7461;DHT22;6757;52.258;12.840;2023-03-01T09:37:26;1.10;99.90
7461;DHT22;6757;52.258;12.840;2023-03-01T09:39:53;1.10;99.90
7461;DHT22;6757;52.258;12.840;2023-03-01T09:42:20;1.30;99.90
7461;DHT22;6757;52.258;12.840;2023-03-01T09:44:51;1.40;99.90
7461;DHT22;6757;52.258;12.840;2023-03-01T09:47:20;1.50;99.90
7461;DHT22;6757;52.258;12.840;2023-03-01T09:49:57;1.60;99.90
7461;DHT22;6757;52.258;12.840;2023-03-01T09:52:34;1.70;99.90
7461;DHT22;6757;52.258;12.840;2023-03-01T09:55:10;1.80;99.90
7461;DHT22;6757;52.258;12.840;2023-03-01T09:57:45;1.90;99.90
7461;DHT22;6757;52.258;12.840;2023-03-01T10:00:26;2.00;99.90
7461;DHT22;6757;52.258;12.840;2023-03-01T10:03:21;2.10;99.90
7461;DHT22;6757;52.258;12.840;2023-03-01T10:05:57;2.20;99.90
7461;DHT22;6757;52.258;12.840;2023-03-01T10:08:31;2.30;99.90
7461;DHT22;6757;52.258;12.840;2023-03-01T10:11:05;2.30;99.90
7461;DHT22;6757;52.258;12.840;2023-03-01T10:13:40;2.40;99.90
7461;DHT22;6757;52.258;12.840;2023-03-01T10:16:13;2.50;99.90
7461;DHT22;6757;52.258;12.840;2023-03-01T10:18:43;2.50;99.90
7461;DHT22;6757;52.258;12.840;2023-03-01T10:21:16;2.60;99.90
7461;DHT22;6757;52.258;12.840;2023-03-01T10:23:46;2.70;99.90
7461;DHT22;6757;52.258;12.840;2023-03-01T10:26:27;2.80;99.90
7461;DHT22;6757;52.258;12.840;2023-03-01T10:29:03;2.80;99.90
7461;DHT22;6757;52.258;12.840;2023-03-01T10:31:39;2.90;99.90
7461;DHT22;6757;52.258;12.840;2023-03-01T10:34:11;3.00;99.90
7461;DHT22;6757;52.258;12.840;2023-03-01T10:36:42;3.10;99.90
7461;DHT22;6757;52.258;12.840;2023-03-01T10:39:15;3.20;99.90
7461;DHT22;6757;52.258;12.840;2023-03-01T10:41:56;3.30;99.90
7461;DHT22;6757;52.258;12.840;2023-03-01T10:44:42;3.40;99.90
7461;DHT22;6757;52.258;12.840;2023-03-01T10:47:19;3.50;99.90
7461;DHT22;6757;52.258;12.840;2023-03-01T10:49:53;3.70;99.90
7461;DHT22;6757;52.258;12.840;2023-03-01T10:52:32;3.90;99.90
7461;DHT22;6757;52.258;12.840;2023-03-01T10:55:03;4.20;99.90
7461;DHT22;6757;52.258;12.840;2023-03-01T10:57:34;4.30;99.90
7461;DHT22;6757;52.258;12.840;2023-03-01T11:00:19;4.40;99.90
7461;DHT22;6757;52.258;12.840;2023-03-01T11:02:50;4.60;99.90
7461;DHT22;6757;52.258;12.840;2023-03-01T11:05:21;4.70;99.90
7461;DHT22;6757;52.258;12.840;2023-03-01T11:07:52;4.70;99.90
7461;DHT22;6757;52.258;12.840;2023-03-01T11:10:24;4.80;99.90
7461;DHT22;6757;52.258;12.840;2023-03-01T11:12:53;4.90;99.90
7461;DHT22;6757;52.258;12.840;2023-03-01T11:15:23;5.00;99.90
7461;DHT22;6757;52.258;12.840;2023-03-01T11:17:52;5.10;99.90
7461;DHT22;6757;52.258;12.840;2023-03-01T11:20:25;5.20;99.90
7461;DHT22;6757;52.258;12.840;2023-03-01T11:22:59;5.30;99.90
7461;DHT22;6757;52.258;12.840;2023-03-01T11:25:30;5.40;99.90
7461;DHT22;6757;52.258;12.840;2023-03-01T11:27:59;5.40;99.90
7461;DHT22;6757;52.258;12.840;2023-03-01T11:30:30;5.40;99.90
7461;DHT22;6757;52.258;12.840;2023-03-01T11:33:11;5.50;99.90
7461;DHT22;6757;52.258;12.840;2023-03-01T11:35:47;5.50;99.90
7461;DHT22;6757;52.258;12.840;2023-03-01T11:38:22;5.60;99.90
7461;DHT22;6757;52.258;12.840;2023-03-01T11:40:52;5.60;99.90
7461;DHT22;6757;52.258;12.840;2023-03-01T11:43:29;5.70;99.90
7461;DHT22;6757;52.258;12.840;2023-03-01T11:49:48;5.80;99.90
7461;DHT22;6757;52.258;12.840;2023-03-01T11:52:27;5.90;99.90
7461;DHT22;6757;52.258;12.840;2023-03-01T11:55:13;5.90;99.90
7461;DHT22;6757;52.258;12.840;2023-03-01T11:58:02;5.90;99.90
7461;DHT22;6757;52.258;12.840;2023-03-01T12:00:45;5.90;99.90
7461;DHT22;6757;52.258;12.840;2023-03-01T12:03:33;6.00;99.90
7461;DHT22;6757;52.258;12.840;2023-03-01T12:06:28;6.10;99.90
7461;DHT22;6757;52.258;12.840;2023-03-01T12:09:09;6.20;99.90
7461;DHT22;6757;52.258;12.840;2023-03-01T12:12:00;6.40;99.90
7461;DHT22;6757;52.258;12.840;2023-03-01T12:14:59;6.50;99.90
7461;DHT22;6757;52.258;12.840;2023-03-01T12:17:46;6.60;99.90
7461;DHT22;6757;52.258;12.840;2023-03-01T12:20:28;6.70;99.90
7461;DHT22;6757;52.258;12.840;2023-03-01T12:23:30;6.80;99.80
7461;DHT22;6757;52.258;12.840;2023-03-01T12:26:11;6.90;99.40
7461;DHT22;6757;52.258;12.840;2023-03-01T12:28:53;7.00;98.70
7461;DHT22;6757;52.258;12.840;2023-03-01T12:31:42;7.00;98.30
7461;DHT22;6757;52.258;12.840;2023-03-01T12:34:29;7.10;97.50
7461;DHT22;6757;52.258;12.840;2023-03-01T12:37:21;7.20;97.00
7461;DHT22;6757;52.258;12.840;2023-03-01T12:40:15;7.30;97.00
7461;DHT22;6757;52.258;12.840;2023-03-01T12:42:58;7.60;96.90
7461;DHT22;6757;52.258;12.840;2023-03-01T12:45:57;8.00;96.60
7461;DHT22;6757;52.258;12.840;2023-03-01T12:48:46;8.40;96.00
7461;DHT22;6757;52.258;12.840;2023-03-01T12:51:20;8.80;95.50
7461;DHT22;6757;52.258;12.840;2023-03-01T12:53:51;9.20;94.50
7461;DHT22;6757;52.258;12.840;2023-03-01T12:56:21;9.50;93.20
7461;DHT22;6757;52.258;12.840;2023-03-01T12:58:57;9.90;92.50
7461;DHT22;6757;52.258;12.840;2023-03-01T13:01:36;10.40;91.50
7461;DHT22;6757;52.258;12.840;2023-03-01T13:04:24;11.00;90.70
7461;DHT22;6757;52.258;12.840;2023-03-01T13:07:14;11.60;89.30
7461;DHT22;6757;52.258;12.840;2023-03-01T13:09:50;12.20;87.10
7461;DHT22;6757;52.258;12.840;2023-03-01T13:12:43;12.80;85.40
7461;DHT22;6757;52.258;12.840;2023-03-01T13:15:26;13.30;83.30
7461;DHT22;6757;52.258;12.840;2023-03-01T13:17:57;13.60;81.60
7461;DHT22;6757;52.258;12.840;2023-03-01T13:20:30;13.70;80.30
7461;DHT22;6757;52.258;12.840;2023-03-01T13:23:05;13.90;78.30
7461;DHT22;6757;52.258;12.840;2023-03-01T13:25:34;14.00;76.00
7461;DHT22;6757;52.258;12.840;2023-03-01T13:28:40;14.20;74.40
7461;DHT22;6757;52.258;12.840;2023-03-01T13:31:57;14.50;72.70
7461;DHT22;6757;52.258;12.840;2023-03-01T13:34:41;14.70;70.60
7461;DHT22;6757;52.258;12.840;2023-03-01T13:37:17;14.80;68.40
7461;DHT22;6757;52.258;12.840;2023-03-01T13:39:46;15.00;67.50
7461;DHT22;6757;52.258;12.840;2023-03-01T13:42:35;15.30;66.60
7461;DHT22;6757;52.258;12.840;2023-03-01T13:45:14;15.60;65.80
7461;DHT22;6757;52.258;12.840;2023-03-01T13:47:45;15.60;64.40
7461;DHT22;6757;52.258;12.840;2023-03-01T13:50:19;15.60;63.10
7461;DHT22;6757;52.258;12.840;2023-03-01T13:52:51;15.70;63.10
7461;DHT22;6757;52.258;12.840;2023-03-01T13:55:25;15.80;62.10
7461;DHT22;6757;52.258;12.840;2023-03-01T13:57:58;15.90;61.70
7461;DHT22;6757;52.258;12.840;2023-03-01T14:00:37;16.00;61.40
7461;DHT22;6757;52.258;12.840;2023-03-01T14:03:11;16.20;61.20
7461;DHT22;6757;52.258;12.840;2023-03-01T14:05:42;16.40;60.90
7461;DHT22;6757;52.258;12.840;2023-03-01T14:08:21;16.60;60.30
7461;DHT22;6757;52.258;12.840;2023-03-01T14:10:58;16.80;59.70
7461;DHT22;6757;52.258;12.840;2023-03-01T14:13:59;17.00;59.40
7461;DHT22;6757;52.258;12.840;2023-03-01T14:16:55;17.20;59.00
7461;DHT22;6757;52.258;12.840;2023-03-01T14:19:29;17.30;58.40
7461;DHT22;6757;52.258;12.840;2023-03-01T14:22:00;17.50;57.90
7461;DHT22;6757;52.258;12.840;2023-03-01T14:24:31;17.70;57.20
7461;DHT22;6757;52.258;12.840;2023-03-01T14:27:01;18.10;56.60
7461;DHT22;6757;52.258;12.840;2023-03-01T14:29:34;18.50;55.60
7461;DHT22;6757;52.258;12.840;2023-03-01T14:32:15;18.90;54.60
7461;DHT22;6757;52.258;12.840;2023-03-01T14:34:48;19.30;53.10
7461;DHT22;6757;52.258;12.840;2023-03-01T14:37:20;19.60;52.20
7461;DHT22;6757;52.258;12.840;2023-03-01T14:39:49;19.60;51.30
7461;DHT22;6757;52.258;12.840;2023-03-01T14:42:17;19.70;50.90
7461;DHT22;6757;52.258;12.840;2023-03-01T14:44:48;19.60;50.00
7461;DHT22;6757;52.258;12.840;2023-03-01T14:47:23;19.40;49.20
7461;DHT22;6757;52.258;12.840;2023-03-01T14:49:58;19.20;49.80
7461;DHT22;6757;52.258;12.840;2023-03-01T14:52:33;19.00;49.50
7461;DHT22;6757;52.258;12.840;2023-03-01T14:55:03;18.80;49.80
7461;DHT22;6757;52.258;12.840;2023-03-01T14:57:32;18.70;50.00
7461;DHT22;6757;52.258;12.840;2023-03-01T15:00:02;18.60;49.90
7461;DHT22;6757;52.258;12.840;2023-03-01T15:02:31;18.40;49.00
7461;DHT22;6757;52.258;12.840;2023-03-01T15:05:01;18.10;48.60
7461;DHT22;6757;52.258;12.840;2023-03-01T15:07:32;17.80;48.80
7461;DHT22;6757;52.258;12.840;2023-03-01T15:10:04;17.50;49.20
7461;DHT22;6757;52.258;12.840;2023-03-01T15:12:37;17.00;49.40
7461;DHT22;6757;52.258;12.840;2023-03-01T15:15:30;16.40;49.50
7461;DHT22;6757;52.258;12.840;2023-03-01T15:18:00;15.90;50.80
7461;DHT22;6757;52.258;12.840;2023-03-01T15:20:30;15.50;51.60
7461;DHT22;6757;52.258;12.840;2023-03-01T15:23:01;15.40;57.50
7461;DHT22;6757;52.258;12.840;2023-03-01T15:25:31;15.70;60.10
7461;DHT22;6757;52.258;12.840;2023-03-01T15:28:00;15.80;60.10
7461;DHT22;6757;52.258;12.840;2023-03-01T15:30:30;15.70;59.30
7461;DHT22;6757;52.258;12.840;2023-03-01T15:33:29;15.30;57.80
7461;DHT22;6757;52.258;12.840;2023-03-01T15:36:00;14.60;56.90
7461;DHT22;6757;52.258;12.840;2023-03-01T15:38:36;13.90;56.50
7461;DHT22;6757;52.258;12.840;2023-03-01T15:41:24;13.30;56.50
7461;DHT22;6757;52.258;12.840;2023-03-01T15:43:53;12.70;56.90
7461;DHT22;6757;52.258;12.840;2023-03-01T15:46:27;12.20;57.40
7461;DHT22;6757;52.258;12.840;2023-03-01T15:48:57;11.70;58.00
7461;DHT22;6757;52.258;12.840;2023-03-01T15:51:33;11.50;59.00
7461;DHT22;6757;52.258;12.840;2023-03-01T15:54:04;11.30;59.40
7461;DHT22;6757;52.258;12.840;2023-03-01T15:56:32;11.20;59.90
7461;DHT22;6757;52.258;12.840;2023-03-01T15:59:01;11.00;60.00
7461;DHT22;6757;52.258;12.840;2023-03-01T16:01:29;10.80;60.30
7461;DHT22;6757;52.258;12.840;2023-03-01T16:03:56;10.50;60.50
7461;DHT22;6757;52.258;12.840;2023-03-01T16:06:24;10.30;60.90
7461;DHT22;6757;52.258;12.840;2023-03-01T16:08:52;10.20;61.30
7461;DHT22;6757;52.258;12.840;2023-03-01T16:11:21;10.00;61.40
7461;DHT22;6757;52.258;12.840;2023-03-01T16:13:48;9.90;62.60
7461;DHT22;6757;52.258;12.840;2023-03-01T16:16:16;9.80;62.90
7461;DHT22;6757;52.258;12.840;2023-03-01T16:18:44;9.70;63.10
7461;DHT22;6757;52.258;12.840;2023-03-01T16:21:14;9.50;63.80
7461;DHT22;6757;52.258;12.840;2023-03-01T16:23:45;9.40;65.40
7461;DHT22;6757;52.258;12.840;2023-03-01T16:26:14;9.40;66.50